sensor_id;sensor_type;location;lat;lon;timestamp;temperature;humidity
758;DHT22;363;48.764;9.172;2022-11-28T00:01:44;7.40;99.90
758;DHT22;363;48.764;9.172;2022-11-28T00:04:10;7.30;99.90
758;DHT22;363;48.764;9.172;2022-11-28T00:06:39;7.10;99.90
758;DHT22;363;48.764;9.172;2022-11-28T00:09:06;7.40;99.90
758;DHT22;363;48.764;9.172;2022-11-28T00:11:32;7.20;99.90
758;DHT22;363;48.764;9.172;2022-11-28T00:13:57;7.10;99.90
758;DHT22;363;48.764;9.172;2022-11-28T00:16:23;7.30;99.90
758;DHT22;363;48.764;9.172;2022-11-28T00:18:50;7.20;99.90
758;DHT22;363;48.764;9.172;2022-11-28T00:21:17;7.20;99.90
758;DHT22;363;48.764;9.172;2022-11-28T00:23:44;7.30;99.90
758;DHT22;363;48.764;9.172;2022-11-28T00:26:15;7.30;99.90
758;DHT22;363;48.764;9.172;2022-11-28T00:28:41;7.20;99.90
758;DHT22;363;48.764;9.172;2022-11-28T00:31:20;7.30;99.90
758;DHT22;363;48.764;9.172;2022-11-28T00:33:47;7.20;99.90
758;DHT22;363;48.764;9.172;2022-11-28T00:36:13;7.30;99.90
758;DHT22;363;48.764;9.172;2022-11-28T00:38:39;7.30;99.90
758;DHT22;363;48.764;9.172;2022-11-28T00:41:10;7.00;99.90
758;DHT22;363;48.764;9.172;2022-11-28T00:43:38;7.00;99.90
758;DHT22;363;48.764;9.172;2022-11-28T00:46:04;6.90;99.90
758;DHT22;363;48.764;9.172;2022-11-28T00:48:34;7.10;99.90
758;DHT22;363;48.764;9.172;2022-11-28T00:53:47;7.20;99.90
758;DHT22;363;48.764;9.172;2022-11-28T00:56:15;7.20;99.90
758;DHT22;363;48.764;9.172;2022-11-28T00:58:41;7.30;99.90
758;DHT22;363;48.764;9.172;2022-11-28T01:01:31;7.40;99.90
758;DHT22;363;48.764;9.172;2022-11-28T01:04:00;7.20;99.90
758;DHT22;363;48.764;9.172;2022-11-28T01:06:35;7.40;99.90
758;DHT22;363;48.764;9.172;2022-11-28T01:09:05;7.50;99.90
758;DHT22;363;48.764;9.172;2022-11-28T01:11:32;7.50;99.90
758;DHT22;363;48.764;9.172;2022-11-28T01:13:59;7.10;99.90
758;DHT22;363;48.764;9.172;2022-11-28T01:16:26;7.10;99.90
758;DHT22;363;48.764;9.172;2022-11-28T01:18:52;7.20;99.90
758;DHT22;363;48.764;9.172;2022-11-28T01:21:18;6.80;99.90
758;DHT22;363;48.764;9.172;2022-11-28T01:23:44;6.80;99.90
758;DHT22;363;48.764;9.172;2022-11-28T01:26:15;6.90;99.90
758;DHT22;363;48.764;9.172;2022-11-28T01:28:41;6.60;99.90
758;DHT22;363;48.764;9.172;2022-11-28T01:31:10;6.60;99.90
758;DHT22;363;48.764;9.172;2022-11-28T01:33:36;6.70;99.90
758;DHT22;363;48.764;9.172;2022-11-28T01:36:02;6.80;99.90
758;DHT22;363;48.764;9.172;2022-11-28T01:38:28;6.90;99.90
758;DHT22;363;48.764;9.172;2022-11-28T01:40:54;7.10;99.90
758;DHT22;363;48.764;9.172;2022-11-28T01:43:21;7.10;99.90
758;DHT22;363;48.764;9.172;2022-11-28T01:45:47;6.80;99.90
758;DHT22;363;48.764;9.172;2022-11-28T01:48:17;7.10;99.90
758;DHT22;363;48.764;9.172;2022-11-28T01:50:44;7.10;99.90
758;DHT22;363;48.764;9.172;2022-11-28T01:53:12;6.90;99.90
758;DHT22;363;48.764;9.172;2022-11-28T01:55:48;7.00;99.90
758;DHT22;363;48.764;9.172;2022-11-28T01:58:14;6.90;99.90
758;DHT22;363;48.764;9.172;2022-11-28T02:00:40;6.80;99.90
758;DHT22;363;48.764;9.172;2022-11-28T02:03:14;6.70;99.90
758;DHT22;363;48.764;9.172;2022-11-28T02:05:42;6.70;99.90
758;DHT22;363;48.764;9.172;2022-11-28T02:08:08;6.10;99.90
758;DHT22;363;48.764;9.172;2022-11-28T02:11:30;6.70;99.90
758;DHT22;363;48.764;9.172;2022-11-28T02:13:52;6.70;99.90
758;DHT22;363;48.764;9.172;2022-11-28T02:21:48;7.00;99.90
758;DHT22;363;48.764;9.172;2022-11-28T02:32:35;6.80;99.90
758;DHT22;363;48.764;9.172;2022-11-28T02:35:08;6.70;99.90
758;DHT22;363;48.764;9.172;2022-11-28T02:37:44;6.90;99.90
758;DHT22;363;48.764;9.172;2022-11-28T02:43:13;6.90;99.90
758;DHT22;363;48.764;9.172;2022-11-28T02:48:40;7.10;99.90
758;DHT22;363;48.764;9.172;2022-11-28T02:51:26;7.10;99.90
758;DHT22;363;48.764;9.172;2022-11-28T02:53:54;7.10;99.90
758;DHT22;363;48.764;9.172;2022-11-28T02:56:23;7.10;99.90
758;DHT22;363;48.764;9.172;2022-11-28T02:58:48;7.00;99.90
758;DHT22;363;48.764;9.172;2022-11-28T03:01:28;7.00;99.90
758;DHT22;363;48.764;9.172;2022-11-28T03:07:21;7.10;99.90
758;DHT22;363;48.764;9.172;2022-11-28T03:10:13;7.10;99.90
758;DHT22;363;48.764;9.172;2022-11-28T03:15:46;7.20;99.90
758;DHT22;363;48.764;9.172;2022-11-28T03:18:39;7.20;99.90
758;DHT22;363;48.764;9.172;2022-11-28T03:21:56;7.10;99.90
758;DHT22;363;48.764;9.172;2022-11-28T03:24:16;7.30;99.90
758;DHT22;363;48.764;9.172;2022-11-28T03:29:21;7.20;99.90
758;DHT22;363;48.764;9.172;2022-11-28T03:31:56;7.10;99.90
758;DHT22;363;48.764;9.172;2022-11-28T03:34:26;7.10;99.90
758;DHT22;363;48.764;9.172;2022-11-28T03:36:59;7.10;99.90
758;DHT22;363;48.764;9.172;2022-11-28T03:39:33;7.20;99.90
758;DHT22;363;48.764;9.172;2022-11-28T03:42:09;7.30;99.90
758;DHT22;363;48.764;9.172;2022-11-28T03:44:57;7.10;99.90
758;DHT22;363;48.764;9.172;2022-11-28T03:47:29;7.30;99.90
758;DHT22;363;48.764;9.172;2022-11-28T03:49:56;7.10;99.90
758;DHT22;363;48.764;9.172;2022-11-28T03:52:30;7.40;99.90
758;DHT22;363;48.764;9.172;2022-11-28T03:55:03;7.30;99.90
758;DHT22;363;48.764;9.172;2022-11-28T03:57:45;7.00;99.90
758;DHT22;363;48.764;9.172;2022-11-28T04:00:14;7.30;99.90
758;DHT22;363;48.764;9.172;2022-11-28T04:02:54;7.20;99.90
758;DHT22;363;48.764;9.172;2022-11-28T04:07:55;7.20;99.90
758;DHT22;363;48.764;9.172;2022-11-28T04:10:40;7.10;99.90
758;DHT22;363;48.764;9.172;2022-11-28T04:19:05;7.10;99.90
758;DHT22;363;48.764;9.172;2022-11-28T04:21:55;7.20;99.90
758;DHT22;363;48.764;9.172;2022-11-28T04:24:33;7.30;99.90
758;DHT22;363;48.764;9.172;2022-11-28T04:27:04;7.10;99.90
758;DHT22;363;48.764;9.172;2022-11-28T04:29:35;7.30;99.90
758;DHT22;363;48.764;9.172;2022-11-28T04:32:03;7.30;99.90
758;DHT22;363;48.764;9.172;2022-11-28T04:34:31;7.40;99.90
758;DHT22;363;48.764;9.172;2022-11-28T04:36:59;7.40;99.90
758;DHT22;363;48.764;9.172;2022-11-28T04:39:26;7.50;99.90
758;DHT22;363;48.764;9.172;2022-11-28T04:41:58;7.20;99.90
758;DHT22;363;48.764;9.172;2022-11-28T04:44:30;7.00;99.90
758;DHT22;363;48.764;9.172;2022-11-28T04:46:58;7.10;99.90
758;DHT22;363;48.764;9.172;2022-11-28T04:49:25;7.00;99.90
758;DHT22;363;48.764;9.172;2022-11-28T04:57:06;7.40;99.90
758;DHT22;363;48.764;9.172;2022-11-28T04:59:34;7.20;99.90
758;DHT22;363;48.764;9.172;2022-11-28T05:02:04;7.20;99.90
758;DHT22;363;48.764;9.172;2022-11-28T05:04:31;7.40;99.90
758;DHT22;363;48.764;9.172;2022-11-28T05:07:06;7.10;99.90
758;DHT22;363;48.764;9.172;2022-11-28T05:09:33;7.10;99.90
758;DHT22;363;48.764;9.172;2022-11-28T05:11:58;6.90;99.90
758;DHT22;363;48.764;9.172;2022-11-28T05:14:24;7.10;99.90
758;DHT22;363;48.764;9.172;2022-11-28T05:16:50;7.30;99.90
758;DHT22;363;48.764;9.172;2022-11-28T05:19:15;6.90;99.90
758;DHT22;363;48.764;9.172;2022-11-28T05:21:41;7.10;99.90
758;DHT22;363;48.764;9.172;2022-11-28T05:24:07;7.20;99.90
758;DHT22;363;48.764;9.172;2022-11-28T05:26:33;7.00;99.90
758;DHT22;363;48.764;9.172;2022-11-28T05:29:00;7.10;99.90
758;DHT22;363;48.764;9.172;2022-11-28T05:31:27;7.00;99.90
758;DHT22;363;48.764;9.172;2022-11-28T05:33:56;7.10;99.90
758;DHT22;363;48.764;9.172;2022-11-28T05:36:22;7.00;99.90
758;DHT22;363;48.764;9.172;2022-11-28T05:38:48;7.10;99.90
758;DHT22;363;48.764;9.172;2022-11-28T05:43:44;7.30;99.90
758;DHT22;363;48.764;9.172;2022-11-28T05:46:10;7.50;99.90
758;DHT22;363;48.764;9.172;2022-11-28T05:48:35;7.30;99.90
758;DHT22;363;48.764;9.172;2022-11-28T05:51:03;7.50;99.90
758;DHT22;363;48.764;9.172;2022-11-28T05:53:29;7.60;99.90
758;DHT22;363;48.764;9.172;2022-11-28T05:55:55;7.60;99.90
758;DHT22;363;48.764;9.172;2022-11-28T05:58:21;7.90;99.90
758;DHT22;363;48.764;9.172;2022-11-28T06:00:47;7.90;99.90
758;DHT22;363;48.764;9.172;2022-11-28T06:03:12;7.80;99.90
758;DHT22;363;48.764;9.172;2022-11-28T06:05:41;7.80;99.90
758;DHT22;363;48.764;9.172;2022-11-28T06:08:07;7.60;99.90
758;DHT22;363;48.764;9.172;2022-11-28T06:10:33;7.90;99.90
758;DHT22;363;48.764;9.172;2022-11-28T06:12:59;7.60;99.90
758;DHT22;363;48.764;9.172;2022-11-28T06:15:28;8.10;99.90
758;DHT22;363;48.764;9.172;2022-11-28T06:17:54;7.90;99.90
758;DHT22;363;48.764;9.172;2022-11-28T06:20:19;7.90;99.90
758;DHT22;363;48.764;9.172;2022-11-28T06:22:46;7.80;99.90
758;DHT22;363;48.764;9.172;2022-11-28T06:25:11;8.30;99.90
758;DHT22;363;48.764;9.172;2022-11-28T06:27:37;8.00;99.90
758;DHT22;363;48.764;9.172;2022-11-28T06:30:04;8.10;99.90
758;DHT22;363;48.764;9.172;2022-11-28T06:32:30;8.00;99.90
758;DHT22;363;48.764;9.172;2022-11-28T06:34:55;8.10;99.90
758;DHT22;363;48.764;9.172;2022-11-28T06:37:21;8.10;99.90
758;DHT22;363;48.764;9.172;2022-11-28T06:39:47;8.00;99.90
758;DHT22;363;48.764;9.172;2022-11-28T06:42:13;7.80;99.90
758;DHT22;363;48.764;9.172;2022-11-28T06:44:40;7.90;99.90
758;DHT22;363;48.764;9.172;2022-11-28T06:47:06;8.00;99.90
758;DHT22;363;48.764;9.172;2022-11-28T06:49:31;8.10;99.90
758;DHT22;363;48.764;9.172;2022-11-28T06:51:57;8.20;99.90
758;DHT22;363;48.764;9.172;2022-11-28T06:54:22;8.10;99.90
758;DHT22;363;48.764;9.172;2022-11-28T06:56:48;7.90;99.90
758;DHT22;363;48.764;9.172;2022-11-28T06:59:14;7.80;99.90
758;DHT22;363;48.764;9.172;2022-11-28T07:01:39;8.20;99.90
758;DHT22;363;48.764;9.172;2022-11-28T07:04:05;7.90;99.90
758;DHT22;363;48.764;9.172;2022-11-28T07:06:31;8.20;99.90
758;DHT22;363;48.764;9.172;2022-11-28T07:08:57;8.00;99.90
758;DHT22;363;48.764;9.172;2022-11-28T07:11:26;7.80;99.90
758;DHT22;363;48.764;9.172;2022-11-28T07:13:52;7.70;99.90
758;DHT22;363;48.764;9.172;2022-11-28T07:16:23;8.00;99.90
758;DHT22;363;48.764;9.172;2022-11-28T07:18:49;7.90;99.90
758;DHT22;363;48.764;9.172;2022-11-28T07:21:16;7.80;99.90
758;DHT22;363;48.764;9.172;2022-11-28T07:23:42;8.00;99.90
758;DHT22;363;48.764;9.172;2022-11-28T07:26:11;7.90;99.90
758;DHT22;363;48.764;9.172;2022-11-28T07:28:37;8.10;99.90
758;DHT22;363;48.764;9.172;2022-11-28T07:31:05;7.80;99.90
758;DHT22;363;48.764;9.172;2022-11-28T07:33:33;7.80;99.90
758;DHT22;363;48.764;9.172;2022-11-28T07:36:01;7.90;99.90
758;DHT22;363;48.764;9.172;2022-11-28T07:38:27;7.70;99.90
758;DHT22;363;48.764;9.172;2022-11-28T07:40:52;7.60;99.90
758;DHT22;363;48.764;9.172;2022-11-28T07:43:18;7.50;99.90
758;DHT22;363;48.764;9.172;2022-11-28T07:45:43;7.70;99.90
758;DHT22;363;48.764;9.172;2022-11-28T07:48:10;7.70;99.90
758;DHT22;363;48.764;9.172;2022-11-28T07:50:38;7.80;99.90
758;DHT22;363;48.764;9.172;2022-11-28T07:53:04;8.00;99.90
758;DHT22;363;48.764;9.172;2022-11-28T07:55:30;7.70;99.90
758;DHT22;363;48.764;9.172;2022-11-28T07:57:56;8.10;99.90
758;DHT22;363;48.764;9.172;2022-11-28T08:00:21;7.80;99.90
758;DHT22;363;48.764;9.172;2022-11-28T08:02:47;7.90;99.90
758;DHT22;363;48.764;9.172;2022-11-28T08:05:13;7.80;99.90
758;DHT22;363;48.764;9.172;2022-11-28T08:07:38;7.80;99.90
758;DHT22;363;48.764;9.172;2022-11-28T08:10:07;7.90;99.90
758;DHT22;363;48.764;9.172;2022-11-28T08:12:33;7.80;99.90
758;DHT22;363;48.764;9.172;2022-11-28T08:14:59;8.00;99.90
758;DHT22;363;48.764;9.172;2022-11-28T08:17:24;7.80;99.90
758;DHT22;363;48.764;9.172;2022-11-28T08:19:50;7.90;99.90
758;DHT22;363;48.764;9.172;2022-11-28T08:22:15;8.30;99.90
758;DHT22;363;48.764;9.172;2022-11-28T08:24:41;8.40;99.90
758;DHT22;363;48.764;9.172;2022-11-28T08:27:07;8.50;99.90
758;DHT22;363;48.764;9.172;2022-11-28T08:29:33;8.30;99.90
758;DHT22;363;48.764;9.172;2022-11-28T08:31:58;8.40;99.90
758;DHT22;363;48.764;9.172;2022-11-28T08:34:24;7.70;99.90
758;DHT22;363;48.764;9.172;2022-11-28T08:36:50;8.80;99.90
758;DHT22;363;48.764;9.172;2022-11-28T08:39:16;8.70;99.90
758;DHT22;363;48.764;9.172;2022-11-28T08:41:41;8.70;99.90
758;DHT22;363;48.764;9.172;2022-11-28T08:44:07;8.80;99.90
758;DHT22;363;48.764;9.172;2022-11-28T08:46:33;8.90;99.90
758;DHT22;363;48.764;9.172;2022-11-28T08:48:58;9.10;99.90
758;DHT22;363;48.764;9.172;2022-11-28T08:51:26;8.80;99.90
758;DHT22;363;48.764;9.172;2022-11-28T08:53:55;9.00;99.90
758;DHT22;363;48.764;9.172;2022-11-28T08:56:20;9.10;99.90
758;DHT22;363;48.764;9.172;2022-11-28T08:58:46;9.10;99.90
758;DHT22;363;48.764;9.172;2022-11-28T09:01:17;9.40;99.90
758;DHT22;363;48.764;9.172;2022-11-28T09:03:44;9.60;99.90
758;DHT22;363;48.764;9.172;2022-11-28T09:06:10;9.40;99.90
758;DHT22;363;48.764;9.172;2022-11-28T09:08:36;9.50;99.90
758;DHT22;363;48.764;9.172;2022-11-28T09:11:02;9.60;99.90
758;DHT22;363;48.764;9.172;2022-11-28T09:13:27;9.80;99.90
758;DHT22;363;48.764;9.172;2022-11-28T09:15:53;9.70;99.90
758;DHT22;363;48.764;9.172;2022-11-28T09:18:20;9.80;99.90
758;DHT22;363;48.764;9.172;2022-11-28T09:20:45;9.60;99.90
758;DHT22;363;48.764;9.172;2022-11-28T09:23:11;9.80;99.90
758;DHT22;363;48.764;9.172;2022-11-28T09:25:37;9.70;99.40
758;DHT22;363;48.764;9.172;2022-11-28T09:28:04;9.40;99.60
758;DHT22;363;48.764;9.172;2022-11-28T09:32:56;9.50;99.20
758;DHT22;363;48.764;9.172;2022-11-28T09:35:21;9.60;99.60
758;DHT22;363;48.764;9.172;2022-11-28T09:37:47;9.50;99.80
758;DHT22;363;48.764;9.172;2022-11-28T09:40:19;9.60;99.90
758;DHT22;363;48.764;9.172;2022-11-28T09:42:48;9.50;99.90
758;DHT22;363;48.764;9.172;2022-11-28T09:45:19;9.70;99.90
758;DHT22;363;48.764;9.172;2022-11-28T09:47:51;9.90;99.90
758;DHT22;363;48.764;9.172;2022-11-28T09:50:24;9.80;99.60
758;DHT22;363;48.764;9.172;2022-11-28T09:55:48;9.60;99.30
758;DHT22;363;48.764;9.172;2022-11-28T09:58:24;9.70;99.30
758;DHT22;363;48.764;9.172;2022-11-28T10:03:35;9.70;99.90
758;DHT22;363;48.764;9.172;2022-11-28T10:11:01;9.60;99.90
758;DHT22;363;48.764;9.172;2022-11-28T10:18:47;10.00;99.40
758;DHT22;363;48.764;9.172;2022-11-28T10:21:46;10.10;99.40
758;DHT22;363;48.764;9.172;2022-11-28T10:24:17;10.00;98.90
758;DHT22;363;48.764;9.172;2022-11-28T10:26:49;10.30;98.50
758;DHT22;363;48.764;9.172;2022-11-28T10:29:26;10.20;98.50
758;DHT22;363;48.764;9.172;2022-11-28T10:31:57;10.10;97.90
758;DHT22;363;48.764;9.172;2022-11-28T10:34:46;10.20;97.80
758;DHT22;363;48.764;9.172;2022-11-28T10:37:27;10.20;98.20
758;DHT22;363;48.764;9.172;2022-11-28T10:39:54;10.20;98.20
758;DHT22;363;48.764;9.172;2022-11-28T10:42:34;10.10;98.00
758;DHT22;363;48.764;9.172;2022-11-28T10:56:57;10.30;98.50
758;DHT22;363;48.764;9.172;2022-11-28T11:04:44;10.70;98.30
758;DHT22;363;48.764;9.172;2022-11-28T11:07:22;10.60;98.30
758;DHT22;363;48.764;9.172;2022-11-28T11:09:48;10.70;98.40
758;DHT22;363;48.764;9.172;2022-11-28T11:12:24;10.60;98.30
758;DHT22;363;48.764;9.172;2022-11-28T11:14:50;10.90;98.10
758;DHT22;363;48.764;9.172;2022-11-28T11:17:34;10.80;97.90
758;DHT22;363;48.764;9.172;2022-11-28T11:23:00;10.90;98.00
758;DHT22;363;48.764;9.172;2022-11-28T11:25:28;10.80;98.10
758;DHT22;363;48.764;9.172;2022-11-28T11:28:01;10.70;99.50
758;DHT22;363;48.764;9.172;2022-11-28T11:30:35;10.70;99.90
758;DHT22;363;48.764;9.172;2022-11-28T11:33:04;10.80;99.90
758;DHT22;363;48.764;9.172;2022-11-28T11:35:35;10.90;99.90
758;DHT22;363;48.764;9.172;2022-11-28T11:40:45;10.80;99.80
758;DHT22;363;48.764;9.172;2022-11-28T11:43:31;10.90;99.90
758;DHT22;363;48.764;9.172;2022-11-28T11:46:13;10.90;99.90
758;DHT22;363;48.764;9.172;2022-11-28T11:48:44;10.90;99.90
758;DHT22;363;48.764;9.172;2022-11-28T11:51:24;10.50;99.90
758;DHT22;363;48.764;9.172;2022-11-28T11:54:19;10.50;99.90
758;DHT22;363;48.764;9.172;2022-11-28T11:56:46;10.50;99.90
758;DHT22;363;48.764;9.172;2022-11-28T11:59:15;10.50;99.90
758;DHT22;363;48.764;9.172;2022-11-28T12:01:44;10.60;99.90
758;DHT22;363;48.764;9.172;2022-11-28T12:04:29;10.60;99.90
758;DHT22;363;48.764;9.172;2022-11-28T12:06:57;10.40;99.90
758;DHT22;363;48.764;9.172;2022-11-28T12:09:30;10.50;99.90
758;DHT22;363;48.764;9.172;2022-11-28T12:12:21;10.60;99.90
758;DHT22;363;48.764;9.172;2022-11-28T12:14:49;10.50;99.90
758;DHT22;363;48.764;9.172;2022-11-28T12:17:46;10.60;99.90
758;DHT22;363;48.764;9.172;2022-11-28T12:38:57;10.70;99.90
758;DHT22;363;48.764;9.172;2022-11-28T12:41:56;10.80;99.90
758;DHT22;363;48.764;9.172;2022-11-28T12:47:05;10.90;99.90
758;DHT22;363;48.764;9.172;2022-11-28T13:00:18;10.70;99.90
758;DHT22;363;48.764;9.172;2022-11-28T13:03:12;10.70;99.90
758;DHT22;363;48.764;9.172;2022-11-28T13:08:28;11.20;99.90
758;DHT22;363;48.764;9.172;2022-11-28T13:13:54;11.50;99.90
758;DHT22;363;48.764;9.172;2022-11-28T13:22:13;11.40;99.90
758;DHT22;363;48.764;9.172;2022-11-28T13:25:01;11.40;99.90
758;DHT22;363;48.764;9.172;2022-11-28T13:27:38;11.50;99.90
758;DHT22;363;48.764;9.172;2022-11-28T13:30:12;11.40;99.90
758;DHT22;363;48.764;9.172;2022-11-28T13:32:52;11.20;99.90
758;DHT22;363;48.764;9.172;2022-11-28T13:35:19;11.40;99.90
758;DHT22;363;48.764;9.172;2022-11-28T13:40:51;11.30;99.90
758;DHT22;363;48.764;9.172;2022-11-28T13:45:45;11.50;99.90
758;DHT22;363;48.764;9.172;2022-11-28T13:53:37;11.20;99.90
758;DHT22;363;48.764;9.172;2022-11-28T14:01:15;10.90;99.90
758;DHT22;363;48.764;9.172;2022-11-28T14:06:24;10.90;99.90
758;DHT22;363;48.764;9.172;2022-11-28T14:09:06;11.00;99.90
758;DHT22;363;48.764;9.172;2022-11-28T14:25:38;10.70;99.90
758;DHT22;363;48.764;9.172;2022-11-28T14:28:27;10.70;99.90
758;DHT22;363;48.764;9.172;2022-11-28T14:31:17;10.60;99.90
758;DHT22;363;48.764;9.172;2022-11-28T14:33:47;10.90;99.90
758;DHT22;363;48.764;9.172;2022-11-28T14:36:33;10.80;99.90
758;DHT22;363;48.764;9.172;2022-11-28T14:41:27;10.70;99.90
758;DHT22;363;48.764;9.172;2022-11-28T14:43:52;10.70;99.90
758;DHT22;363;48.764;9.172;2022-11-28T14:54:31;10.80;99.90
758;DHT22;363;48.764;9.172;2022-11-28T14:57:00;10.90;99.90
758;DHT22;363;48.764;9.172;2022-11-28T14:59:36;11.00;99.90
758;DHT22;363;48.764;9.172;2022-11-28T15:10:22;11.00;99.90
758;DHT22;363;48.764;9.172;2022-11-28T15:15:50;11.00;99.90
758;DHT22;363;48.764;9.172;2022-11-28T15:18:17;10.60;99.90
758;DHT22;363;48.764;9.172;2022-11-28T15:20:56;10.40;99.90
758;DHT22;363;48.764;9.172;2022-11-28T15:23:31;10.40;99.90
758;DHT22;363;48.764;9.172;2022-11-28T15:25:58;10.40;99.90
758;DHT22;363;48.764;9.172;2022-11-28T15:28:25;10.40;99.90
758;DHT22;363;48.764;9.172;2022-11-28T15:30:54;10.60;99.90
758;DHT22;363;48.764;9.172;2022-11-28T15:33:22;10.40;99.90
758;DHT22;363;48.764;9.172;2022-11-28T15:36:01;10.70;99.90
758;DHT22;363;48.764;9.172;2022-11-28T15:38:29;10.10;99.90
758;DHT22;363;48.764;9.172;2022-11-28T15:40:56;10.50;99.90
758;DHT22;363;48.764;9.172;2022-11-28T15:43:23;10.30;99.90
758;DHT22;363;48.764;9.172;2022-11-28T15:45:55;10.20;99.90
758;DHT22;363;48.764;9.172;2022-11-28T15:48:35;10.20;99.90
758;DHT22;363;48.764;9.172;2022-11-28T15:51:03;10.10;99.90
758;DHT22;363;48.764;9.172;2022-11-28T15:53:29;10.10;99.90
758;DHT22;363;48.764;9.172;2022-11-28T15:56:12;10.10;99.90
758;DHT22;363;48.764;9.172;2022-11-28T15:58:40;9.90;99.90
758;DHT22;363;48.764;9.172;2022-11-28T16:01:14;9.90;99.90
758;DHT22;363;48.764;9.172;2022-11-28T16:03:55;9.80;99.90
758;DHT22;363;48.764;9.172;2022-11-28T16:06:24;10.10;99.90
758;DHT22;363;48.764;9.172;2022-11-28T16:11:45;9.60;99.90
758;DHT22;363;48.764;9.172;2022-11-28T16:14:28;9.50;99.90
758;DHT22;363;48.764;9.172;2022-11-28T16:16:56;10.00;99.90
758;DHT22;363;48.764;9.172;2022-11-28T16:19:32;9.80;99.90
758;DHT22;363;48.764;9.172;2022-11-28T16:22:00;10.00;99.90
758;DHT22;363;48.764;9.172;2022-11-28T16:24:29;9.90;99.90
758;DHT22;363;48.764;9.172;2022-11-28T16:27:00;9.50;99.90
758;DHT22;363;48.764;9.172;2022-11-28T16:29:30;9.40;99.90
758;DHT22;363;48.764;9.172;2022-11-28T16:32:16;9.30;99.90
758;DHT22;363;48.764;9.172;2022-11-28T16:34:51;9.50;99.90
758;DHT22;363;48.764;9.172;2022-11-28T16:37:23;9.10;99.90
758;DHT22;363;48.764;9.172;2022-11-28T16:40:12;9.40;99.90
758;DHT22;363;48.764;9.172;2022-11-28T16:42:39;9.20;99.90
758;DHT22;363;48.764;9.172;2022-11-28T16:45:17;9.10;99.90
758;DHT22;363;48.764;9.172;2022-11-28T16:47:45;9.30;99.90
758;DHT22;363;48.764;9.172;2022-11-28T16:58:13;9.30;99.90
758;DHT22;363;48.764;9.172;2022-11-28T17:00:43;9.00;99.90
758;DHT22;363;48.764;9.172;2022-11-28T17:06:16;9.10;99.90
758;DHT22;363;48.764;9.172;2022-11-28T17:08:42;9.20;99.90
758;DHT22;363;48.764;9.172;2022-11-28T17:11:08;9.20;99.90
758;DHT22;363;48.764;9.172;2022-11-28T17:13:34;9.20;99.90
758;DHT22;363;48.764;9.172;2022-11-28T17:15:59;9.00;99.90
758;DHT22;363;48.764;9.172;2022-11-28T17:18:25;9.10;99.90
758;DHT22;363;48.764;9.172;2022-11-28T17:20:51;9.00;99.90
758;DHT22;363;48.764;9.172;2022-11-28T17:23:16;8.90;99.90
758;DHT22;363;48.764;9.172;2022-11-28T17:25:51;9.00;99.90
758;DHT22;363;48.764;9.172;2022-11-28T17:28:16;9.00;99.90
758;DHT22;363;48.764;9.172;2022-11-28T17:30:42;9.10;99.90
758;DHT22;363;48.764;9.172;2022-11-28T17:33:14;8.90;99.90
758;DHT22;363;48.764;9.172;2022-11-28T17:35:41;9.00;99.90
758;DHT22;363;48.764;9.172;2022-11-28T17:38:10;9.10;99.90
758;DHT22;363;48.764;9.172;2022-11-28T17:40:36;9.00;99.90
758;DHT22;363;48.764;9.172;2022-11-28T17:43:03;9.00;99.90
758;DHT22;363;48.764;9.172;2022-11-28T17:45:30;9.10;99.90
758;DHT22;363;48.764;9.172;2022-11-28T17:47:58;9.10;99.90
758;DHT22;363;48.764;9.172;2022-11-28T17:50:23;9.30;99.90
758;DHT22;363;48.764;9.172;2022-11-28T17:52:49;9.20;99.90
758;DHT22;363;48.764;9.172;2022-11-28T17:55:15;9.10;99.90
758;DHT22;363;48.764;9.172;2022-11-28T17:57:42;9.10;99.90
758;DHT22;363;48.764;9.172;2022-11-28T18:00:09;9.10;99.90
758;DHT22;363;48.764;9.172;2022-11-28T18:02:36;8.90;99.90
758;DHT22;363;48.764;9.172;2022-11-28T18:05:02;8.90;99.90
758;DHT22;363;48.764;9.172;2022-11-28T18:07:28;9.00;99.90
758;DHT22;363;48.764;9.172;2022-11-28T18:09:54;9.00;99.90
758;DHT22;363;48.764;9.172;2022-11-28T18:12:20;8.80;99.90
758;DHT22;363;48.764;9.172;2022-11-28T18:14:45;8.80;99.90
758;DHT22;363;48.764;9.172;2022-11-28T18:17:11;8.90;99.90
758;DHT22;363;48.764;9.172;2022-11-28T18:19:37;9.00;99.90
758;DHT22;363;48.764;9.172;2022-11-28T18:22:02;8.90;99.90
758;DHT22;363;48.764;9.172;2022-11-28T18:24:28;8.90;99.90
758;DHT22;363;48.764;9.172;2022-11-28T18:26:53;9.10;99.90
758;DHT22;363;48.764;9.172;2022-11-28T18:29:19;8.80;99.90
758;DHT22;363;48.764;9.172;2022-11-28T18:31:45;8.90;99.90
758;DHT22;363;48.764;9.172;2022-11-28T18:34:10;8.90;99.90
758;DHT22;363;48.764;9.172;2022-11-28T18:36:37;9.00;99.90
758;DHT22;363;48.764;9.172;2022-11-28T18:39:05;8.90;99.90
758;DHT22;363;48.764;9.172;2022-11-28T18:41:32;9.10;99.90
758;DHT22;363;48.764;9.172;2022-11-28T18:43:59;9.20;99.90
758;DHT22;363;48.764;9.172;2022-11-28T18:46:26;9.00;99.90
758;DHT22;363;48.764;9.172;2022-11-28T18:48:52;8.90;99.90
758;DHT22;363;48.764;9.172;2022-11-28T18:53:48;8.90;99.90
758;DHT22;363;48.764;9.172;2022-11-28T18:56:14;9.00;99.90
758;DHT22;363;48.764;9.172;2022-11-28T18:58:42;9.10;99.90
758;DHT22;363;48.764;9.172;2022-11-28T19:03:41;8.90;99.90
758;DHT22;363;48.764;9.172;2022-11-28T19:06:10;8.80;99.90
758;DHT22;363;48.764;9.172;2022-11-28T19:08:36;8.90;99.90
758;DHT22;363;48.764;9.172;2022-11-28T19:11:04;8.80;99.90
758;DHT22;363;48.764;9.172;2022-11-28T19:13:37;9.00;99.90
758;DHT22;363;48.764;9.172;2022-11-28T19:16:09;8.60;99.90
758;DHT22;363;48.764;9.172;2022-11-28T19:18:36;9.00;99.90
758;DHT22;363;48.764;9.172;2022-11-28T19:21:06;8.80;99.90
758;DHT22;363;48.764;9.172;2022-11-28T19:23:32;9.20;99.90
758;DHT22;363;48.764;9.172;2022-11-28T19:26:02;8.90;99.90
758;DHT22;363;48.764;9.172;2022-11-28T19:28:28;9.00;99.90
758;DHT22;363;48.764;9.172;2022-11-28T19:30:53;8.70;99.90
758;DHT22;363;48.764;9.172;2022-11-28T19:33:19;8.80;99.90
758;DHT22;363;48.764;9.172;2022-11-28T19:35:45;8.50;99.90
758;DHT22;363;48.764;9.172;2022-11-28T19:38:11;8.70;99.90
758;DHT22;363;48.764;9.172;2022-11-28T19:40:36;8.80;99.90
758;DHT22;363;48.764;9.172;2022-11-28T19:43:02;8.70;99.90
758;DHT22;363;48.764;9.172;2022-11-28T19:45:28;8.80;99.90
758;DHT22;363;48.764;9.172;2022-11-28T19:47:54;8.60;99.90
758;DHT22;363;48.764;9.172;2022-11-28T19:50:19;8.90;99.90
758;DHT22;363;48.764;9.172;2022-11-28T19:52:45;8.60;99.90
758;DHT22;363;48.764;9.172;2022-11-28T19:55:10;8.60;99.90
758;DHT22;363;48.764;9.172;2022-11-28T19:57:37;8.70;99.90
758;DHT22;363;48.764;9.172;2022-11-28T20:00:03;8.90;99.90
758;DHT22;363;48.764;9.172;2022-11-28T20:02:30;8.70;99.90
758;DHT22;363;48.764;9.172;2022-11-28T20:04:56;8.50;99.90
758;DHT22;363;48.764;9.172;2022-11-28T20:07:23;8.50;99.90
758;DHT22;363;48.764;9.172;2022-11-28T20:09:48;8.80;99.90
758;DHT22;363;48.764;9.172;2022-11-28T20:12:14;8.90;99.90
758;DHT22;363;48.764;9.172;2022-11-28T20:14:39;8.80;99.90
758;DHT22;363;48.764;9.172;2022-11-28T20:17:05;8.60;99.90
758;DHT22;363;48.764;9.172;2022-11-28T20:19:31;8.90;99.90
758;DHT22;363;48.764;9.172;2022-11-28T20:21:57;8.80;99.90
758;DHT22;363;48.764;9.172;2022-11-28T20:24:23;8.70;99.90
758;DHT22;363;48.764;9.172;2022-11-28T20:26:49;8.70;99.90
758;DHT22;363;48.764;9.172;2022-11-28T20:29:17;8.70;99.90
758;DHT22;363;48.764;9.172;2022-11-28T20:31:45;8.70;99.90